Second Wind — WDD3557 — position and weather

sailwx.info

Track history (hours):
 
Tides and Currents Weather Stations Pressure Air Temp Water Temp Dewpoint Dewpoint Depression Visibility Wind Speed Wind Dir Waves Ship Positions

Second Wind

Owner: Atlantic Capes Fisheries, Inc, Cape May, NJ. More information available from US FCC via Universal Licensing System and Coast Guard Vessel Documentation Center.

Last reported at 2017-Sep-18 06:58 UTC. Time now 2017-Sep-19 18:40 UTC.
Position N 38°58' W 074°53'.

Length 21 m.

Type: Fishing. MMSI: 367133080.

Date/timePositionNaut miles runAvg speedWind from/ knotsBaromVisibWave heightAir tempDewpointWater temp
2017-Sep-18 06:58N 38°58' W 074°53'  
2017-Sep-14 07:20N 38°58' W 074°53'1 0.4
2017-Sep-14 04:54N 38°57' W 074°52'3 6.4
2017-Sep-14 04:28N 38°56' W 074°49'53 3.6
2017-Sep-13 13:45N 39°38' W 074°06'1 2.8
2017-Sep-13 13:28N 39°38' W 074°07'1 2.9
2017-Sep-13 12:59N 39°37' W 074°08'1 2.9
2017-Sep-13 12:30N 39°35' W 074°09'1 1.1
2017-Sep-13 11:42N 39°35' W 074°10'1 2.3
2017-Sep-13 11:29N 39°34' W 074°10'1 2.4
2017-Sep-13 10:57N 39°33' W 074°11'1 2.9
2017-Sep-13 10:27N 39°32' W 074°12'2 4.4
2017-Sep-13 10:00N 39°30' W 074°13'3 6.7
2017-Sep-13 09:30N 39°27' W 074°14'3 6.8
2017-Sep-13 09:00N 39°24' W 074°16'3 6.9
2017-Sep-13 08:30N 39°21' W 074°18'3 6.9
2017-Sep-13 08:00N 39°18' W 074°20'4 6.9
2017-Sep-13 07:29N 39°15' W 074°23'3 6.9
2017-Sep-13 07:00N 39°12' W 074°25'3 6.9
2017-Sep-13 06:30N 39°09' W 074°27'3 7.0
2017-Sep-13 06:00N 39°06' W 074°29'3 7.0
2017-Sep-13 05:30N 39°03' W 074°31'3 7.0
2017-Sep-13 05:00N 38°60' W 074°34'3 6.9
2017-Sep-13 04:30N 38°56' W 074°34'1 2.5
2017-Sep-13 04:00N 38°55' W 074°34'1 2.8
2017-Sep-13 03:30N 38°54' W 074°36'1 2.9
2017-Sep-13 03:00N 38°53' W 074°37'3 6.0
2017-Sep-13 02:30N 38°51' W 074°39'4 7.1
2017-Sep-13 02:00N 38°48' W 074°42'4 7.2
2017-Sep-13 01:30N 38°45' W 074°45'4 7.3
2017-Sep-13 01:00N 38°42' W 074°48'7 2.1
2017-Sep-12 21:50N 38°46' W 074°55'1 2.1
2017-Sep-12 21:17N 38°45' W 074°56'1 2.8
2017-Sep-12 20:59N 38°44' W 074°56'  
Track history (hours):
 
Tides and Currents Weather Stations Pressure Air Temp Water Temp Dewpoint Dewpoint Depression Visibility Wind Speed Wind Dir Waves Ship Positions

Second Wind

Owner: Atlantic Capes Fisheries, Inc, Cape May, NJ. More information available from US FCC via Universal Licensing System and Coast Guard Vessel Documentation Center.

Last reported at 2017-Sep-18 06:58 UTC. Time now 2017-Sep-19 18:40 UTC.
Position N 38°58' W 074°53'.

Length 21 m.

Type: Fishing. MMSI: 367133080.

Date/timePositionNaut miles runAvg speedWind from/ knotsBaromVisibWave heightAir tempDewpointWater temp
2017-Sep-18 06:58N 38°58' W 074°53'  
2017-Sep-14 07:20N 38°58' W 074°53'1 0.4
2017-Sep-14 04:54N 38°57' W 074°52'3 6.4
2017-Sep-14 04:28N 38°56' W 074°49'53 3.6
2017-Sep-13 13:45N 39°38' W 074°06'1 2.8
2017-Sep-13 13:28N 39°38' W 074°07'1 2.9
2017-Sep-13 12:59N 39°37' W 074°08'1 2.9
2017-Sep-13 12:30N 39°35' W 074°09'1 1.1
2017-Sep-13 11:42N 39°35' W 074°10'1 2.3
2017-Sep-13 11:29N 39°34' W 074°10'1 2.4
2017-Sep-13 10:57N 39°33' W 074°11'1 2.9
2017-Sep-13 10:27N 39°32' W 074°12'2 4.4
2017-Sep-13 10:00N 39°30' W 074°13'3 6.7
2017-Sep-13 09:30N 39°27' W 074°14'3 6.8
2017-Sep-13 09:00N 39°24' W 074°16'3 6.9
2017-Sep-13 08:30N 39°21' W 074°18'3 6.9
2017-Sep-13 08:00N 39°18' W 074°20'4 6.9
2017-Sep-13 07:29N 39°15' W 074°23'3 6.9
2017-Sep-13 07:00N 39°12' W 074°25'3 6.9
2017-Sep-13 06:30N 39°09' W 074°27'3 7.0
2017-Sep-13 06:00N 39°06' W 074°29'3 7.0
2017-Sep-13 05:30N 39°03' W 074°31'3 7.0
2017-Sep-13 05:00N 38°60' W 074°34'3 6.9
2017-Sep-13 04:30N 38°56' W 074°34'1 2.5
2017-Sep-13 04:00N 38°55' W 074°34'1 2.8
2017-Sep-13 03:30N 38°54' W 074°36'1 2.9
2017-Sep-13 03:00N 38°53' W 074°37'3 6.0
2017-Sep-13 02:30N 38°51' W 074°39'4 7.1
2017-Sep-13 02:00N 38°48' W 074°42'4 7.2
2017-Sep-13 01:30N 38°45' W 074°45'4 7.3
2017-Sep-13 01:00N 38°42' W 074°48'7 2.1
2017-Sep-12 21:50N 38°46' W 074°55'1 2.1
2017-Sep-12 21:17N 38°45' W 074°56'1 2.8
2017-Sep-12 20:59N 38°44' W 074°56'  

Dump ship's entire track history